Terminal Aerodrome Forecast
Issued by NWS Cleveland, OH

Home | Current Version | Previous Version | Graphics & Text | Print | Product List | Glossary On
Versions: 1 2 3 4 5 6 7 8 9 10 11 12 13 14 15 16
000
FTUS41 KCLE 111700
TAFTOL
TAF
KTOL 111720Z 1118/1218 VRB03KT P6SM BKN035
     FM112100 08005KT P6SM SCT050
     FM120100 VRB03KT P6SM SCT120
     FM121400 23008KT P6SM FEW050 SCT120 BKN200=

USA.gov is the U.S. government's official web portal to all federal, state and local government web resources and services.